createdAt,value
2022-08-17T00:00:34.420Z,46.97
2022-08-17T00:03:48.994Z,47.15
2022-08-17T00:06:54.366Z,47.09
2022-08-17T00:09:57.949Z,47.21
2022-08-17T00:13:06.341Z,47.18
2022-08-17T00:16:14.845Z,47.10
2022-08-17T00:19:23.248Z,46.99
2022-08-17T00:22:31.451Z,46.91
2022-08-17T00:25:43.919Z,46.81
2022-08-17T00:28:48.020Z,46.97
2022-08-17T00:31:50.990Z,46.91
2022-08-17T00:34:55.139Z,47.11
2022-08-17T00:37:59.186Z,47.05
2022-08-17T00:41:12.760Z,47.05
2022-08-17T00:44:16.798Z,47.14
2022-08-17T00:47:19.782Z,47.17
2022-08-17T00:50:22.845Z,47.22
2022-08-17T00:53:29.253Z,47.39
2022-08-17T00:56:40.471Z,47.29
2022-08-17T01:00:02.297Z,47.43
2022-08-17T01:03:12.391Z,47.25
2022-08-17T01:06:16.087Z,47.32
2022-08-17T01:09:20.848Z,47.49
2022-08-17T01:12:26.254Z,47.50
2022-08-17T01:15:31.406Z,47.41
2022-08-17T01:18:35.600Z,47.37
2022-08-17T01:21:55.301Z,47.42
2022-08-17T01:25:01.470Z,47.47
2022-08-17T01:28:05.232Z,47.40
2022-08-17T01:31:09.536Z,47.11
2022-08-17T01:34:15.215Z,46.96
2022-08-17T01:37:21.931Z,46.91
2022-08-17T01:40:41.276Z,47.09
2022-08-17T01:43:50.732Z,47.20
2022-08-17T01:46:53.874Z,47.39
2022-08-17T01:49:57.463Z,47.54
2022-08-17T01:53:05.495Z,47.76
2022-08-17T01:56:10.055Z,47.67
2022-08-17T01:59:13.643Z,47.99
2022-08-17T02:02:31.132Z,47.93
2022-08-17T02:05:35.761Z,47.96
2022-08-17T02:09:03.296Z,47.78
2022-08-17T02:12:38.591Z,47.63
2022-08-17T02:15:28.981Z,47.47
2022-08-17T02:18:31.769Z,47.22
2022-08-17T02:21:36.845Z,47.34
2022-08-17T02:24:59.932Z,47.24
2022-08-17T02:28:04.714Z,47.10
2022-08-17T02:31:11.473Z,47.06
2022-08-17T02:34:15.265Z,46.98
2022-08-17T02:37:18.955Z,47.06
2022-08-17T02:40:36.206Z,47.23
2022-08-17T02:43:39.847Z,47.39
2022-08-17T02:46:42.810Z,47.45
2022-08-17T02:49:55.844Z,47.66
2022-08-17T02:53:02.369Z,47.75
2022-08-17T02:56:06.056Z,48.08
2022-08-17T02:59:09.236Z,48.11
2022-08-17T03:02:12.613Z,48.33
2022-08-17T03:05:19.264Z,48.25
2022-08-17T03:08:23.585Z,48.40
2022-08-17T03:11:26.648Z,48.35
2022-08-17T03:14:29.619Z,48.33
2022-08-17T03:17:33.119Z,48.33
2022-08-17T03:20:37.263Z,48.39
2022-08-17T03:23:42.538Z,48.34
2022-08-17T03:26:45.603Z,48.37
2022-08-17T03:29:48.881Z,48.55
2022-08-17T03:32:55.454Z,48.63
2022-08-17T03:35:59.330Z,48.61
2022-08-17T03:39:02.508Z,48.75
2022-08-17T03:42:32.201Z,48.86
2022-08-17T03:45:55.527Z,48.68
2022-08-17T03:49:18.657Z,48.50
2022-08-17T03:52:40.363Z,48.56
2022-08-17T03:56:02.261Z,48.68
2022-08-17T03:59:05.647Z,48.91
2022-08-17T04:02:14.868Z,48.86
2022-08-17T04:05:18.059Z,48.91
2022-08-17T04:08:21.321Z,49.00
2022-08-17T04:11:24.796Z,49.21
2022-08-17T04:14:28.386Z,49.25
2022-08-17T04:17:31.358Z,49.32
2022-08-17T04:20:35.048Z,49.20
2022-08-17T04:23:38.387Z,49.35
2022-08-17T04:26:53.196Z,49.62
2022-08-17T04:29:58.779Z,49.56
2022-08-17T04:33:07.415Z,49.67
2022-08-17T04:36:13.114Z,49.70
2022-08-17T04:39:16.213Z,49.74
2022-08-17T04:42:19.181Z,49.52
2022-08-17T04:45:22.193Z,49.63
2022-08-17T04:48:29.686Z,49.45
2022-08-17T04:51:51.016Z,49.59
2022-08-17T04:55:04.334Z,49.59
2022-08-17T04:58:09.230Z,49.69
2022-08-17T05:01:13.129Z,49.68
2022-08-17T05:04:34.913Z,49.81
2022-08-17T05:07:38.642Z,49.77
2022-08-17T05:10:45.344Z,49.85
2022-08-17T05:13:50.544Z,49.81
2022-08-17T05:16:53.688Z,49.80
2022-08-17T05:19:56.761Z,49.88
2022-08-17T05:23:04.786Z,49.76
2022-08-17T05:26:08.346Z,50.02
2022-08-17T05:29:14.788Z,50.19
2022-08-17T05:32:39.006Z,50.20
2022-08-17T05:35:49.622Z,50.21
2022-08-17T05:38:52.768Z,50.50
2022-08-17T05:41:55.739Z,50.54
2022-08-17T05:44:59.752Z,50.61
2022-08-17T05:48:03.542Z,50.31
2022-08-17T05:51:30.956Z,50.32
2022-08-17T05:54:46.377Z,50.14
2022-08-17T05:58:00.299Z,50.28
2022-08-17T06:01:07.437Z,50.15
2022-08-17T06:04:17.126Z,50.22
2022-08-17T06:07:57.907Z,50.43
2022-08-17T06:11:07.587Z,50.42
2022-08-17T06:14:39.008Z,50.43
2022-08-17T06:17:43.438Z,50.53
2022-08-17T06:20:54.982Z,50.49
2022-08-17T06:24:07.366Z,50.47
2022-08-17T06:27:14.552Z,50.42
2022-08-17T06:30:26.929Z,50.42
2022-08-17T06:33:34.505Z,50.54
2022-08-17T06:36:53.438Z,50.48
2022-08-17T06:40:15.958Z,50.20
2022-08-17T06:43:48.994Z,49.89
2022-08-17T06:46:58.533Z,49.62
2022-08-17T06:50:31.796Z,49.65
2022-08-17T06:53:52.177Z,49.68
2022-08-17T06:57:10.999Z,49.73
2022-08-17T07:00:19.434Z,49.71
2022-08-17T07:03:28.419Z,49.62
2022-08-17T07:06:40.948Z,49.33
2022-08-17T07:09:44.572Z,49.43
2022-08-17T07:12:51.309Z,49.47
2022-08-17T07:16:03.508Z,49.49
2022-08-17T07:19:07.944Z,49.50
2022-08-17T07:22:30.753Z,49.56
2022-08-17T07:25:53.700Z,49.46
2022-08-17T07:28:57.488Z,49.31
2022-08-17T07:32:00.563Z,49.29
2022-08-17T07:35:11.805Z,49.19
2022-08-17T07:38:24.820Z,49.11
2022-08-17T07:41:53.253Z,49.10
2022-08-17T07:44:58.195Z,48.83
2022-08-17T07:48:19.694Z,49.00
2022-08-17T07:51:28.190Z,48.92
2022-08-17T07:54:36.078Z,48.69
2022-08-17T07:57:39.863Z,48.51
2022-08-17T08:00:42.837Z,48.43
2022-08-17T08:03:52.647Z,48.18
2022-08-17T08:07:01.531Z,48.14
2022-08-17T08:10:25.319Z,47.89
2022-08-17T08:13:29.935Z,47.85
2022-08-17T08:16:33.007Z,47.70
2022-08-17T08:19:35.737Z,47.67
2022-08-17T08:23:00.876Z,47.47
2022-08-17T08:26:34.527Z,47.20
2022-08-17T08:29:53.149Z,47.29
2022-08-17T08:33:08.809Z,47.17
2022-08-17T08:37:15.934Z,46.90
2022-08-17T08:40:27.980Z,46.87
2022-08-17T08:44:19.713Z,46.72
2022-08-17T08:47:26.888Z,46.63
2022-08-17T08:50:43.155Z,46.51
2022-08-17T08:54:01.886Z,46.24
2022-08-17T08:57:29.391Z,46.06
2022-08-17T09:00:40.868Z,45.75
2022-08-17T09:04:06.593Z,45.43
2022-08-17T09:07:41.580Z,45.74
2022-08-17T09:11:02.868Z,45.47
2022-08-17T09:14:21.478Z,45.28
2022-08-17T09:17:32.965Z,45.12
2022-08-17T09:20:54.665Z,45.08
2022-08-17T09:24:29.422Z,45.03
2022-08-17T09:27:57.563Z,44.90
2022-08-17T09:31:16.099Z,42.94
2022-08-17T09:34:44.637Z,43.82
2022-08-17T09:37:56.257Z,43.92
2022-08-17T09:41:15.506Z,43.67
2022-08-17T09:44:28.911Z,43.65
2022-08-17T09:47:45.912Z,43.42
2022-08-17T09:51:09.921Z,42.07
2022-08-17T09:54:42.007Z,42.29
2022-08-17T09:57:56.226Z,42.35
2022-08-17T10:01:18.304Z,41.70
2022-08-17T10:04:27.425Z,42.04
2022-08-17T10:08:00.625Z,41.96
2022-08-17T10:11:33.598Z,41.63
2022-08-17T10:14:44.208Z,41.79
2022-08-17T10:18:19.109Z,41.58
2022-08-17T10:21:44.492Z,41.42
2022-08-17T10:25:23.948Z,41.57
2022-08-17T10:28:52.959Z,41.44
2022-08-17T10:32:04.432Z,41.34
2022-08-17T10:35:46.183Z,40.92
2022-08-17T10:39:11.155Z,40.86
2022-08-17T10:42:47.291Z,40.58
2022-08-17T10:46:33.719Z,39.77
2022-08-17T10:49:39.803Z,40.34
2022-08-17T10:52:42.787Z,40.12
2022-08-17T10:56:14.552Z,39.59
2022-08-17T10:59:43.865Z,39.57
2022-08-17T11:02:56.097Z,39.44
2022-08-17T11:06:23.289Z,39.66
2022-08-17T11:09:51.829Z,39.55
2022-08-17T11:13:13.941Z,39.25
2022-08-17T11:16:39.327Z,38.40
2022-08-17T11:20:19.952Z,39.31
2022-08-17T11:23:48.510Z,39.28
2022-08-17T11:27:01.720Z,39.01
2022-08-17T11:30:36.228Z,38.86
2022-08-17T11:34:11.820Z,38.52
2022-08-17T11:37:28.813Z,36.78
2022-08-17T11:40:59.415Z,37.43
2022-08-17T11:44:27.363Z,36.96
2022-08-17T11:48:27.777Z,37.19
2022-08-17T11:52:01.089Z,36.90
2022-08-17T11:55:31.734Z,36.40
2022-08-17T11:58:29.983Z,36.22
2022-08-17T12:01:32.847Z,36.58
2022-08-17T12:04:36.356Z,36.79
2022-08-17T12:07:54.751Z,36.20
2022-08-17T12:11:10.220Z,36.06
2022-08-17T12:14:51.382Z,35.40
2022-08-17T12:17:56.121Z,36.13
2022-08-17T12:21:03.641Z,36.03
2022-08-17T12:24:25.115Z,35.77
2022-08-17T12:27:47.705Z,35.70
2022-08-17T12:31:04.466Z,35.20
2022-08-17T12:34:17.545Z,34.71
2022-08-17T12:37:25.697Z,34.95
2022-08-17T12:40:34.361Z,34.69
2022-08-17T12:43:37.309Z,34.64
2022-08-17T12:47:10.785Z,34.52
2022-08-17T12:50:29.014Z,34.65
2022-08-17T12:53:37.497Z,34.55
2022-08-17T12:56:40.982Z,34.93
2022-08-17T12:59:49.400Z,34.75
2022-08-17T13:03:15.889Z,34.15
2022-08-17T13:06:34.211Z,34.38
2022-08-17T13:09:40.726Z,34.36
2022-08-17T13:12:44.247Z,34.62
2022-08-17T13:15:59.909Z,34.57
2022-08-17T13:19:40.078Z,34.72
2022-08-17T13:22:54.312Z,34.72
2022-08-17T13:26:06.337Z,34.44
2022-08-17T13:29:20.960Z,34.72
2022-08-17T13:32:37.822Z,34.64
2022-08-17T13:35:50.094Z,34.61
2022-08-17T13:39:07.198Z,34.31
2022-08-17T13:42:29.568Z,34.27
2022-08-17T13:45:50.625Z,34.25
2022-08-17T13:49:02.121Z,34.22
2022-08-17T13:52:05.298Z,34.14
2022-08-17T13:55:22.571Z,34.06
2022-08-17T13:58:27.721Z,34.04
2022-08-17T14:01:53.814Z,33.42
2022-08-17T14:04:58.774Z,33.20
2022-08-17T14:08:07.042Z,33.48
2022-08-17T14:11:10.412Z,32.88
2022-08-17T14:14:15.206Z,33.16
2022-08-17T14:17:19.249Z,33.00
2022-08-17T14:20:23.116Z,32.84
2022-08-17T14:23:27.541Z,33.09
2022-08-17T14:26:30.799Z,33.37
2022-08-17T14:29:34.802Z,33.47
2022-08-17T14:32:41.663Z,33.50
2022-08-17T14:35:44.631Z,33.55
2022-08-17T14:38:48.010Z,33.52
2022-08-17T14:41:50.992Z,33.37
2022-08-17T14:44:55.886Z,33.51
2022-08-17T14:47:59.076Z,33.29
2022-08-17T14:51:02.049Z,33.32
2022-08-17T14:54:05.636Z,33.27
2022-08-17T14:57:25.158Z,33.26
2022-08-17T15:01:01.218Z,33.54
2022-08-17T15:04:04.697Z,33.52
2022-08-17T15:07:08.384Z,33.54
2022-08-17T15:10:13.772Z,33.40
2022-08-17T15:13:22.752Z,33.28
2022-08-17T15:16:27.342Z,33.37
2022-08-17T15:19:30.328Z,33.33
2022-08-17T15:22:33.615Z,33.43
2022-08-17T15:25:37.433Z,33.36
2022-08-17T15:28:40.566Z,33.41
2022-08-17T15:31:43.833Z,33.37
2022-08-17T15:34:46.763Z,33.18
2022-08-17T15:37:49.697Z,33.41
2022-08-17T15:41:20.225Z,33.33
2022-08-17T15:44:23.470Z,33.55
2022-08-17T15:47:37.288Z,33.45
2022-08-17T15:50:45.588Z,33.45
2022-08-17T15:53:52.470Z,33.47
2022-08-17T15:56:55.937Z,33.51
2022-08-17T15:59:59.277Z,33.40
2022-08-17T16:03:44.837Z,33.27
2022-08-17T16:06:29.770Z,33.16
2022-08-17T16:09:34.045Z,33.13
2022-08-17T16:12:47.914Z,33.21
2022-08-17T16:15:56.817Z,33.13
2022-08-17T16:19:00.257Z,32.97
2022-08-17T16:22:05.272Z,32.67
2022-08-17T16:25:16.329Z,32.54
2022-08-17T16:28:20.100Z,32.18
2022-08-17T16:31:23.791Z,32.25
2022-08-17T16:34:27.091Z,32.03
2022-08-17T16:37:31.304Z,32.17
2022-08-17T16:40:37.586Z,31.98
2022-08-17T16:43:40.517Z,31.78
2022-08-17T16:46:45.846Z,32.12
2022-08-17T16:49:50.239Z,32.27
2022-08-17T16:53:07.693Z,32.30
2022-08-17T16:56:10.819Z,32.28
2022-08-17T16:59:29.999Z,32.37
2022-08-17T17:02:37.947Z,32.52
2022-08-17T17:05:55.235Z,32.16
2022-08-17T17:09:05.894Z,32.32
2022-08-17T17:13:00.830Z,32.33
2022-08-17T17:15:59.114Z,32.33
2022-08-17T17:19:10.439Z,32.60
2022-08-17T17:22:27.677Z,32.70
2022-08-17T17:25:41.054Z,33.32
2022-08-17T17:29:14.556Z,35.23
2022-08-17T17:32:32.670Z,36.48
2022-08-17T17:36:01.622Z,36.60
2022-08-17T17:39:12.507Z,36.87
2022-08-17T17:42:21.396Z,37.32
2022-08-17T17:45:32.762Z,37.77
2022-08-17T17:48:35.737Z,37.78
2022-08-17T17:52:07.777Z,38.08
2022-08-17T17:55:40.723Z,38.27
2022-08-17T17:59:13.785Z,38.07
2022-08-17T18:02:52.449Z,38.41
2022-08-17T18:06:09.728Z,38.18
2022-08-17T18:09:28.707Z,38.47
2022-08-17T18:13:00.944Z,38.35
2022-08-17T18:16:10.989Z,38.52
2022-08-17T18:19:25.688Z,38.58
2022-08-17T18:22:31.513Z,38.50
2022-08-17T18:25:54.512Z,38.41
2022-08-17T18:28:57.968Z,38.86
2022-08-17T18:32:22.328Z,38.61
2022-08-17T18:35:30.484Z,38.75
2022-08-17T18:38:37.941Z,38.61
2022-08-17T18:41:47.753Z,38.29
2022-08-17T18:44:54.955Z,38.05
2022-08-17T18:47:58.583Z,38.15
2022-08-17T18:51:26.361Z,38.63
2022-08-17T18:55:14.086Z,38.76
2022-08-17T18:58:28.218Z,39.10
2022-08-17T19:01:53.259Z,38.51
2022-08-17T19:05:11.059Z,38.24
2022-08-17T19:08:29.763Z,38.05
2022-08-17T19:11:35.737Z,38.35
2022-08-17T19:14:39.492Z,39.18
2022-08-17T19:17:57.506Z,39.01
2022-08-17T19:21:18.797Z,39.22
2022-08-17T19:24:24.909Z,39.09
2022-08-17T19:27:50.062Z,39.20
2022-08-17T19:30:59.851Z,39.03
2022-08-17T19:34:03.484Z,38.99
2022-08-17T19:37:30.674Z,39.05
2022-08-17T19:41:00.202Z,38.69
2022-08-17T19:44:14.878Z,38.89
2022-08-17T19:47:55.080Z,38.92
2022-08-17T19:51:36.152Z,38.78
2022-08-17T19:55:00.817Z,38.98
2022-08-17T19:58:27.334Z,38.85
2022-08-17T20:02:11.647Z,38.94
2022-08-17T20:05:21.854Z,38.69
2022-08-17T20:08:29.867Z,38.71
2022-08-17T20:11:45.734Z,38.81
2022-08-17T20:15:00.581Z,38.86
2022-08-17T20:18:19.411Z,39.09
2022-08-17T20:21:57.763Z,39.09
2022-08-17T20:25:29.946Z,39.17
2022-08-17T20:28:39.138Z,39.20
2022-08-17T20:31:46.334Z,39.28
2022-08-17T20:35:09.955Z,39.25
2022-08-17T20:38:39.436Z,39.26
2022-08-17T20:42:04.798Z,39.43
2022-08-17T20:45:26.548Z,39.29
2022-08-17T20:48:39.164Z,39.44
2022-08-17T20:52:00.667Z,39.57
2022-08-17T20:55:05.527Z,39.52
2022-08-17T20:58:17.700Z,39.50
2022-08-17T21:01:39.904Z,39.66
2022-08-17T21:04:44.556Z,39.59
2022-08-17T21:07:56.022Z,39.64
2022-08-17T21:11:00.937Z,39.55
2022-08-17T21:14:25.884Z,39.48
2022-08-17T21:17:40.009Z,39.26
2022-08-17T21:21:00.894Z,39.39
2022-08-17T21:24:11.739Z,39.56
2022-08-17T21:27:52.819Z,39.57
2022-08-17T21:30:58.620Z,39.47
2022-08-17T21:34:38.224Z,39.55
2022-08-17T21:37:44.787Z,39.51
2022-08-17T21:40:53.685Z,39.49
2022-08-17T21:44:18.871Z,39.53
2022-08-17T21:47:29.191Z,39.68
2022-08-17T21:50:32.590Z,39.52
2022-08-17T21:53:43.440Z,39.41
2022-08-17T21:56:48.546Z,39.52
2022-08-17T21:59:56.861Z,39.57
2022-08-17T22:03:03.018Z,39.52
2022-08-17T22:06:28.699Z,39.67
2022-08-17T22:09:33.199Z,39.72
2022-08-17T22:12:36.279Z,39.74
2022-08-17T22:15:42.544Z,39.49
2022-08-17T22:18:48.258Z,39.44
2022-08-17T22:22:08.317Z,39.27
2022-08-17T22:25:21.627Z,39.42
2022-08-17T22:28:49.184Z,39.38
2022-08-17T22:31:57.276Z,39.02
2022-08-17T22:35:19.363Z,39.18
2022-08-17T22:38:22.431Z,39.25
2022-08-17T22:41:32.500Z,39.23
2022-08-17T22:44:45.365Z,39.16
2022-08-17T22:47:53.863Z,39.34
2022-08-17T22:51:15.258Z,39.47
2022-08-17T22:54:37.873Z,39.38
2022-08-17T22:58:06.127Z,39.39
2022-08-17T23:01:32.506Z,39.47
2022-08-17T23:04:39.605Z,39.37
2022-08-17T23:07:44.618Z,39.44
2022-08-17T23:10:48.714Z,39.40
2022-08-17T23:13:55.116Z,39.54
2022-08-17T23:17:01.621Z,39.54
2022-08-17T23:20:08.631Z,39.55
2022-08-17T23:23:14.318Z,39.56
2022-08-17T23:26:18.696Z,39.66
2022-08-17T23:29:23.177Z,39.63
2022-08-17T23:32:25.997Z,39.65
2022-08-17T23:35:39.824Z,39.71
2022-08-17T23:38:46.978Z,39.98
2022-08-17T23:41:53.607Z,40.18
2022-08-17T23:44:56.616Z,40.38
2022-08-17T23:48:00.615Z,40.39
2022-08-17T23:51:12.521Z,40.52
2022-08-17T23:54:28.454Z,40.67
2022-08-17T23:57:33.637Z,40.79
